createdAt,value
2023-02-21T00:02:04.156Z,98783.18
2023-02-21T00:04:49.512Z,98775.15
2023-02-21T00:07:35.558Z,98782.31
2023-02-21T00:10:21.240Z,98768.35
2023-02-21T00:13:06.598Z,98770.35
2023-02-21T00:15:52.466Z,98783.39
2023-02-21T00:18:37.814Z,98790.87
2023-02-21T00:21:24.055Z,98781.96
2023-02-21T00:24:09.959Z,98777.45
2023-02-21T00:26:55.470Z,98779.77
2023-02-21T00:29:40.779Z,98783.02
2023-02-21T00:32:26.609Z,98781.67
2023-02-21T00:35:12.552Z,98758.25
2023-02-21T00:37:58.333Z,98769.53
2023-02-21T00:40:44.188Z,98774.70
2023-02-21T00:43:30.046Z,98766.66
2023-02-21T00:46:15.491Z,98761.16
2023-02-21T00:49:01.057Z,98757.44
2023-02-21T00:51:46.976Z,98765.27
2023-02-21T00:54:32.814Z,98771.16
2023-02-21T00:57:18.407Z,98795.88
2023-02-21T01:00:03.825Z,98780.80
2023-02-21T01:02:49.144Z,98784.77
2023-02-21T01:05:35.212Z,98787.02
2023-02-21T01:08:22.040Z,98771.68
2023-02-21T01:11:07.718Z,98781.70
2023-02-21T01:13:53.357Z,98767.72
2023-02-21T01:16:38.639Z,98766.11
2023-02-21T01:19:25.416Z,98780.18
2023-02-21T01:22:10.754Z,98765.13
2023-02-21T01:24:56.172Z,98741.71
2023-02-21T01:27:41.632Z,98758.50
2023-02-21T01:30:28.009Z,98755.32
2023-02-21T01:33:13.734Z,98758.77
2023-02-21T01:36:00.743Z,98747.42
2023-02-21T01:38:46.378Z,98742.85
2023-02-21T01:41:32.113Z,98736.77
2023-02-21T01:44:20.644Z,98747.64
2023-02-21T01:47:06.189Z,98729.25
2023-02-21T01:49:54.788Z,98730.55
2023-02-21T01:52:40.492Z,98725.98
2023-02-21T01:55:27.788Z,98716.38
2023-02-21T01:58:15.235Z,98722.34
2023-02-21T02:01:01.525Z,98708.73
2023-02-21T02:03:50.088Z,98740.84
2023-02-21T02:06:36.535Z,98733.56
2023-02-21T02:09:39.835Z,98736.70
2023-02-21T02:12:57.122Z,98726.09
2023-02-21T02:15:39.048Z,98736.63
2023-02-21T02:18:28.184Z,98741.59
2023-02-21T02:20:58.124Z,98736.66
2023-02-21T02:23:34.176Z,98743.34
2023-02-21T02:26:25.416Z,98744.23
2023-02-21T02:29:29.366Z,98743.10
2023-02-21T02:32:13.818Z,98761.42
2023-02-21T02:35:13.909Z,98755.84
2023-02-21T02:38:02.418Z,98758.67
2023-02-21T02:40:37.718Z,98760.81
2023-02-21T02:43:20.728Z,98761.30
2023-02-21T02:45:59.285Z,98737.81
2023-02-21T02:48:44.528Z,98762.04
2023-02-21T02:51:14.975Z,98762.79
2023-02-21T02:53:42.773Z,98750.91
2023-02-21T02:56:13.625Z,98767.59
2023-02-21T02:58:42.740Z,98762.27
2023-02-21T03:01:47.358Z,98765.22
2023-02-21T03:04:41.321Z,98771.84
2023-02-21T03:07:40.909Z,98765.23
2023-02-21T03:10:45.117Z,98779.75
2023-02-21T03:13:20.733Z,98782.30
2023-02-21T03:19:18.176Z,98773.23
2023-02-21T03:22:08.223Z,98776.35
2023-02-21T03:24:35.989Z,98773.27
2023-02-21T03:27:07.378Z,98770.58
2023-02-21T03:30:01.482Z,98764.88
2023-02-21T03:32:33.937Z,98771.96
2023-02-21T03:35:02.113Z,98774.91
2023-02-21T03:37:38.835Z,98783.63
2023-02-21T03:40:20.585Z,98784.96
2023-02-21T03:42:51.653Z,98767.96
2023-02-21T03:45:19.201Z,98758.31
2023-02-21T03:47:55.701Z,98767.35
2023-02-21T03:50:22.756Z,98762.83
2023-02-21T03:52:50.194Z,98756.79
2023-02-21T03:55:17.763Z,98761.11
2023-02-21T03:57:45.413Z,98763.32
2023-02-21T04:00:14.297Z,98756.11
2023-02-21T04:02:44.820Z,98756.83
2023-02-21T04:05:21.201Z,98762.42
2023-02-21T04:07:48.523Z,98767.85
2023-02-21T04:10:16.706Z,98765.89
2023-02-21T04:12:45.657Z,98757.27
2023-02-21T04:15:12.984Z,98762.30
2023-02-21T04:17:39.887Z,98756.42
2023-02-21T04:20:08.615Z,98749.67
2023-02-21T04:22:40.693Z,98736.64
2023-02-21T04:25:09.204Z,98735.02
2023-02-21T04:27:45.618Z,98736.67
2023-02-21T04:30:12.831Z,98717.69
2023-02-21T04:32:39.767Z,98730.41
2023-02-21T04:35:10.888Z,98728.56
2023-02-21T04:37:38.223Z,98742.14
2023-02-21T04:40:05.562Z,98741.63
2023-02-21T04:42:34.553Z,98738.52
2023-02-21T04:45:03.328Z,98743.02
2023-02-21T04:47:30.324Z,98742.54
2023-02-21T04:49:58.803Z,98741.97
2023-02-21T04:52:25.722Z,98771.76
2023-02-21T04:54:52.621Z,98774.61
2023-02-21T04:57:19.462Z,98763.08
2023-02-21T04:59:46.605Z,98780.27
2023-02-21T05:02:13.657Z,98779.27
2023-02-21T05:04:40.678Z,98787.34
2023-02-21T05:07:07.512Z,98790.25
2023-02-21T05:09:34.320Z,98786.77
2023-02-21T05:12:01.164Z,98769.16
2023-02-21T05:14:28.017Z,98789.89
2023-02-21T05:16:54.907Z,98767.86
2023-02-21T05:19:27.778Z,98776.10
2023-02-21T05:22:00.660Z,98770.23
2023-02-21T05:24:29.862Z,98779.66
2023-02-21T05:26:58.306Z,98787.30
2023-02-21T05:29:26.011Z,98785.54
2023-02-21T05:31:53.093Z,98788.37
2023-02-21T05:34:19.997Z,98793.73
2023-02-21T05:36:47.432Z,98785.39
2023-02-21T05:39:14.282Z,98774.52
2023-02-21T05:41:47.649Z,98772.87
2023-02-21T05:44:14.732Z,98775.73
2023-02-21T05:46:41.616Z,98786.62
2023-02-21T05:49:09.206Z,98780.86
2023-02-21T05:51:42.871Z,98778.02
2023-02-21T05:54:17.272Z,98786.09
2023-02-21T05:56:46.079Z,98792.06
2023-02-21T05:59:14.741Z,98787.13
2023-02-21T06:01:42.187Z,98796.17
2023-02-21T06:04:09.037Z,98796.79
2023-02-21T06:06:36.525Z,98807.25
2023-02-21T06:09:05.091Z,98807.70
2023-02-21T06:11:34.833Z,98796.60
2023-02-21T06:14:05.735Z,98806.84
2023-02-21T06:16:35.038Z,98803.41
2023-02-21T06:19:02.982Z,98820.58
2023-02-21T06:21:29.951Z,98812.45
2023-02-21T06:23:56.868Z,98818.60
2023-02-21T06:26:23.877Z,98812.03
2023-02-21T06:28:51.403Z,98804.04
2023-02-21T06:31:19.992Z,98812.72
2023-02-21T06:33:48.497Z,98807.67
2023-02-21T06:36:19.251Z,98814.80
2023-02-21T06:38:48.836Z,98808.29
2023-02-21T06:41:18.302Z,98812.62
2023-02-21T06:43:45.144Z,98813.13
2023-02-21T06:46:20.199Z,98813.94
2023-02-21T06:48:47.289Z,98813.50
2023-02-21T06:51:14.948Z,98817.13
2023-02-21T06:53:43.501Z,98808.09
2023-02-21T06:56:11.012Z,98830.83
2023-02-21T06:58:38.014Z,98831.66
2023-02-21T07:01:05.242Z,98830.98
2023-02-21T07:03:32.185Z,98828.77
2023-02-21T07:05:59.128Z,98832.78
2023-02-21T07:08:26.707Z,98852.52
2023-02-21T07:10:53.785Z,98850.82
2023-02-21T07:13:22.497Z,98860.67
2023-02-21T07:15:49.680Z,98875.36
2023-02-21T07:18:16.767Z,98860.67
2023-02-21T07:20:43.935Z,98863.03
2023-02-21T07:23:11.027Z,98879.63
2023-02-21T07:25:38.001Z,98902.23
2023-02-21T07:28:05.196Z,98893.47
2023-02-21T07:30:32.230Z,98896.94
2023-02-21T07:32:59.566Z,98896.40
2023-02-21T07:35:26.916Z,98919.36
2023-02-21T07:37:54.233Z,98920.13
2023-02-21T07:40:21.129Z,98920.10
2023-02-21T07:42:48.246Z,98927.77
2023-02-21T07:45:17.148Z,98933.69
2023-02-21T07:47:47.983Z,98952.68
2023-02-21T07:50:16.144Z,98946.08
2023-02-21T07:52:43.533Z,98953.91
2023-02-21T07:55:12.568Z,98952.20
2023-02-21T07:57:39.578Z,98946.73
2023-02-21T08:00:07.296Z,98972.35
2023-02-21T08:02:40.420Z,98986.19
2023-02-21T08:05:09.001Z,98978.54
2023-02-21T08:07:35.942Z,98962.69
2023-02-21T08:10:04.895Z,98984.16
2023-02-21T08:12:31.779Z,99003.61
2023-02-21T08:14:58.699Z,98995.00
2023-02-21T08:17:26.597Z,98985.16
2023-02-21T08:19:53.512Z,99001.81
2023-02-21T08:22:20.503Z,99011.49
2023-02-21T08:24:50.691Z,99003.39
2023-02-21T08:27:18.390Z,99012.55
2023-02-21T08:29:45.786Z,99023.41
2023-02-21T08:32:12.685Z,99027.56
2023-02-21T08:34:39.596Z,99023.67
2023-02-21T08:37:17.560Z,99027.61
2023-02-21T08:39:49.148Z,99033.66
2023-02-21T08:42:16.119Z,99032.89
2023-02-21T08:44:45.014Z,99046.16
2023-02-21T08:47:13.273Z,99052.55
2023-02-21T08:49:41.443Z,99055.25
2023-02-21T08:52:09.450Z,99062.74
2023-02-21T08:54:37.453Z,99066.26
2023-02-21T08:57:04.635Z,99070.98
2023-02-21T08:59:33.892Z,99081.77
2023-02-21T09:02:02.164Z,99079.75
2023-02-21T09:04:31.535Z,99071.96
2023-02-21T09:06:58.425Z,99074.54
2023-02-21T09:09:25.383Z,99076.28
2023-02-21T09:11:52.230Z,99087.36
2023-02-21T09:14:19.266Z,99096.13
2023-02-21T09:16:47.871Z,99098.36
2023-02-21T09:19:15.168Z,99092.19
2023-02-21T09:21:47.693Z,99092.60
2023-02-21T09:24:14.746Z,99097.96
2023-02-21T09:26:42.789Z,99104.36
2023-02-21T09:29:12.431Z,99098.73
2023-02-21T09:31:39.699Z,99101.89
2023-02-21T09:34:06.865Z,99108.15
2023-02-21T09:36:36.509Z,99101.52
2023-02-21T09:39:06.830Z,99108.29
2023-02-21T09:41:35.963Z,99114.52
2023-02-21T09:44:05.223Z,99116.83
2023-02-21T09:46:44.622Z,99122.56
2023-02-21T09:49:21.992Z,99122.89
2023-02-21T09:51:50.483Z,99122.83
2023-02-21T09:54:35.438Z,99119.15
2023-02-21T09:57:05.509Z,99125.39
2023-02-21T09:59:33.585Z,99123.02
2023-02-21T10:02:06.453Z,99126.68
2023-02-21T10:05:14.335Z,99123.95
2023-02-21T10:08:00.223Z,99135.36
2023-02-21T10:10:30.066Z,99141.20
2023-02-21T10:13:15.748Z,99143.23
2023-02-21T10:15:48.633Z,99133.96
2023-02-21T10:18:34.055Z,99142.25
2023-02-21T10:21:05.836Z,99157.54
2023-02-21T10:23:37.025Z,99158.27
2023-02-21T10:26:09.639Z,99150.77
2023-02-21T10:28:38.387Z,99165.73
2023-02-21T10:31:21.388Z,99178.42
2023-02-21T10:33:48.872Z,99164.08
2023-02-21T10:36:23.686Z,99162.72
2023-02-21T10:39:09.109Z,99171.54
2023-02-21T10:41:40.084Z,99168.92
2023-02-21T10:44:30.795Z,99169.78
2023-02-21T10:47:22.670Z,99175.15
2023-02-21T10:50:02.052Z,99192.83
2023-02-21T10:52:28.932Z,99199.75
2023-02-21T10:55:33.126Z,99192.05
2023-02-21T10:58:10.148Z,99188.96
2023-02-21T11:00:39.355Z,99196.41
2023-02-21T11:03:31.099Z,99197.58
2023-02-21T11:05:58.454Z,99198.02
2023-02-21T11:08:51.849Z,99189.46
2023-02-21T11:11:37.443Z,99188.13
2023-02-21T11:14:26.322Z,99191.70
2023-02-21T11:17:14.383Z,99212.27
2023-02-21T11:19:58.017Z,99222.55
2023-02-21T11:22:26.513Z,99227.77
2023-02-21T11:25:08.660Z,99232.64
2023-02-21T11:27:37.148Z,99238.36
2023-02-21T11:30:16.196Z,99242.36
2023-02-21T11:32:49.043Z,99231.69
2023-02-21T11:35:27.444Z,99243.49
2023-02-21T11:38:02.413Z,99239.62
2023-02-21T11:40:49.372Z,99243.64
2023-02-21T11:43:24.164Z,99246.13
2023-02-21T11:46:05.354Z,99240.79
2023-02-21T11:48:42.939Z,99247.76
2023-02-21T11:51:27.434Z,99243.91
2023-02-21T11:53:54.810Z,99248.46
2023-02-21T11:56:24.627Z,99250.98
2023-02-21T11:59:27.130Z,99251.98
2023-02-21T12:02:31.958Z,99260.14
2023-02-21T12:05:08.222Z,99261.25
2023-02-21T12:08:17.174Z,99262.02
2023-02-21T12:11:11.821Z,99256.30
2023-02-21T12:14:11.055Z,99255.88
2023-02-21T12:17:09.204Z,99253.39
2023-02-21T12:19:53.220Z,99257.71
2023-02-21T12:22:46.441Z,99249.27
2023-02-21T12:25:44.809Z,99256.49
2023-02-21T12:28:39.347Z,99259.73
2023-02-21T12:31:15.910Z,99273.84
2023-02-21T12:34:10.424Z,99280.21
2023-02-21T12:36:49.464Z,99283.94
2023-02-21T12:39:16.394Z,99272.42
2023-02-21T12:42:05.153Z,99274.69
2023-02-21T12:44:44.221Z,99282.35
2023-02-21T12:47:29.852Z,99266.20
2023-02-21T12:50:12.802Z,99278.25
2023-02-21T12:52:58.543Z,99290.14
2023-02-21T12:55:29.999Z,99278.83
2023-02-21T12:58:04.692Z,99276.75
2023-02-21T13:00:44.393Z,99284.86
2023-02-21T13:03:41.072Z,99289.65
2023-02-21T13:06:31.713Z,99295.10
2023-02-21T13:09:39.464Z,99301.02
2023-02-21T13:12:25.700Z,99306.30
2023-02-21T13:14:57.423Z,99293.70
2023-02-21T13:17:25.807Z,99314.50
2023-02-21T13:20:07.756Z,99312.88
2023-02-21T13:23:31.430Z,99304.40
2023-02-21T13:26:30.411Z,99316.48
2023-02-21T13:28:59.002Z,99316.23
2023-02-21T13:31:39.774Z,99327.02
2023-02-21T13:34:09.210Z,99337.29
2023-02-21T13:36:39.229Z,99344.35
2023-02-21T13:39:09.078Z,99340.40
2023-02-21T13:41:39.791Z,99339.23
2023-02-21T13:44:47.413Z,99336.05
2023-02-21T13:47:17.628Z,99344.20
2023-02-21T13:49:51.460Z,99342.94
2023-02-21T13:52:24.337Z,99347.73
2023-02-21T13:55:14.187Z,99356.75
2023-02-21T13:57:50.537Z,99359.23
2023-02-21T14:00:29.821Z,99361.30
2023-02-21T14:03:05.766Z,99365.08
2023-02-21T14:05:48.147Z,99369.12
2023-02-21T14:08:19.702Z,99377.73
2023-02-21T14:11:14.244Z,99376.80
2023-02-21T14:14:03.197Z,99377.84
2023-02-21T14:16:48.924Z,99388.13
2023-02-21T14:19:42.275Z,99380.29
2023-02-21T14:22:16.442Z,99374.11
2023-02-21T14:24:53.665Z,99386.45
2023-02-21T14:27:20.550Z,99398.55
2023-02-21T14:30:03.055Z,99397.45
2023-02-21T14:32:38.153Z,99406.88
2023-02-21T14:35:20.280Z,99403.41
2023-02-21T14:38:21.162Z,99397.56
2023-02-21T14:41:01.667Z,99414.37
2023-02-21T14:43:38.020Z,99399.14
2023-02-21T14:46:34.070Z,99418.37
2023-02-21T14:49:41.808Z,99424.71
2023-02-21T14:52:17.621Z,99428.03
2023-02-21T14:55:24.176Z,99435.46
2023-02-21T14:58:09.452Z,99434.63
2023-02-21T15:00:39.481Z,99438.42
2023-02-21T15:03:25.513Z,99442.95
2023-02-21T15:06:03.430Z,99425.73
2023-02-21T15:08:41.331Z,99443.93
2023-02-21T15:11:16.834Z,99444.90
2023-02-21T15:13:44.242Z,99449.02
2023-02-21T15:16:14.437Z,99464.80
2023-02-21T15:18:57.869Z,99466.10
2023-02-21T15:21:24.790Z,99469.64
2023-02-21T15:24:08.883Z,99476.27
2023-02-21T15:26:35.878Z,99479.61
2023-02-21T15:29:17.532Z,99484.73
2023-02-21T15:31:56.009Z,99480.59
2023-02-21T15:34:28.288Z,99481.46
2023-02-21T15:37:24.283Z,99481.96
2023-02-21T15:39:55.662Z,99486.67
2023-02-21T15:42:23.892Z,99488.66
2023-02-21T15:44:56.450Z,99486.52
2023-02-21T15:47:26.106Z,99491.33
2023-02-21T15:50:13.804Z,99491.70
2023-02-21T15:52:48.894Z,99496.08
2023-02-21T15:55:18.778Z,99500.39
2023-02-21T15:57:57.769Z,99502.05
2023-02-21T16:00:34.236Z,99505.67
2023-02-21T16:03:27.488Z,99510.79
2023-02-21T16:06:17.208Z,99514.42
2023-02-21T16:09:22.116Z,99516.83
2023-02-21T16:12:00.982Z,99525.94
2023-02-21T16:14:55.393Z,99530.83
2023-02-21T16:17:32.480Z,99528.02
2023-02-21T16:20:06.612Z,99536.92
2023-02-21T16:23:06.258Z,99540.02
2023-02-21T16:25:25.849Z,99545.92
2023-02-21T16:27:56.272Z,99548.00
2023-02-21T16:30:31.660Z,99554.48
2023-02-21T16:33:04.556Z,99556.67
2023-02-21T16:35:33.123Z,99560.67
2023-02-21T16:38:01.166Z,99558.65
2023-02-21T16:40:34.466Z,99562.45
2023-02-21T16:43:03.286Z,99564.04
2023-02-21T16:45:31.221Z,99566.85
2023-02-21T16:48:01.490Z,99569.86
2023-02-21T16:50:36.326Z,99568.99
2023-02-21T16:53:04.029Z,99573.45
2023-02-21T16:55:31.303Z,99574.54
2023-02-21T16:58:04.413Z,99576.05
2023-02-21T17:00:33.641Z,99577.45
2023-02-21T17:03:00.925Z,99582.80
2023-02-21T17:05:28.043Z,99586.63
2023-02-21T17:07:56.548Z,99588.48
2023-02-21T17:10:23.660Z,99589.41
2023-02-21T17:12:50.507Z,99596.16
2023-02-21T17:15:17.745Z,99595.12
2023-02-21T17:17:52.649Z,99602.54
2023-02-21T17:20:22.024Z,99597.31
2023-02-21T17:22:49.229Z,99596.92
2023-02-21T17:25:16.722Z,99599.27
2023-02-21T17:27:44.749Z,99603.08
2023-02-21T17:30:12.483Z,99601.68
2023-02-21T17:32:39.742Z,99604.56
2023-02-21T17:35:07.691Z,99609.61
2023-02-21T17:37:35.191Z,99614.69
2023-02-21T17:40:02.901Z,99610.95
2023-02-21T17:42:29.769Z,99614.88
2023-02-21T17:44:57.716Z,99620.80
2023-02-21T17:47:24.862Z,99615.94
2023-02-21T17:49:54.763Z,99615.81
2023-02-21T17:52:22.116Z,99616.45
2023-02-21T17:54:49.321Z,99620.98
2023-02-21T17:57:16.706Z,99618.73
2023-02-21T17:59:45.953Z,99618.77
2023-02-21T18:02:13.732Z,99619.28
2023-02-21T18:04:41.243Z,99619.56
2023-02-21T18:07:11.483Z,99624.76
2023-02-21T18:09:38.913Z,99623.61
2023-02-21T18:12:06.450Z,99627.54
2023-02-21T18:14:34.239Z,99628.80
2023-02-21T18:17:01.504Z,99630.27
2023-02-21T18:19:29.405Z,99634.86
2023-02-21T18:21:56.625Z,99633.93
2023-02-21T18:24:23.861Z,99632.70
2023-02-21T18:26:51.054Z,99635.38
2023-02-21T18:29:19.048Z,99636.70
2023-02-21T18:31:51.418Z,99639.30
2023-02-21T18:34:19.106Z,99637.13
2023-02-21T18:36:51.809Z,99643.30
2023-02-21T18:39:21.601Z,99640.27
2023-02-21T18:41:49.694Z,99653.04
2023-02-21T18:44:17.036Z,99654.89
2023-02-21T18:46:54.353Z,99661.52
2023-02-21T18:49:25.300Z,99666.59
2023-02-21T18:51:53.628Z,99669.82
2023-02-21T18:54:22.536Z,99674.33
2023-02-21T18:56:52.024Z,99676.17
2023-02-21T18:59:21.866Z,99677.55
2023-02-21T19:01:49.989Z,99683.05
2023-02-21T19:04:17.463Z,99688.16
2023-02-21T19:06:45.378Z,99688.39
2023-02-21T19:09:13.450Z,99696.90
2023-02-21T19:11:40.602Z,99694.45
2023-02-21T19:14:09.408Z,99699.05
2023-02-21T19:16:39.315Z,99702.50
2023-02-21T19:19:08.434Z,99706.34
2023-02-21T19:21:37.614Z,99711.63
2023-02-21T19:24:07.386Z,99709.81
2023-02-21T19:26:36.869Z,99708.75
2023-02-21T19:29:07.420Z,99715.81
2023-02-21T19:31:37.398Z,99711.94
2023-02-21T19:34:08.850Z,99718.20
2023-02-21T19:36:40.479Z,99717.67
2023-02-21T19:39:09.942Z,99711.29
2023-02-21T19:41:38.447Z,99713.66
2023-02-21T19:44:09.598Z,99725.33
2023-02-21T19:46:39.675Z,99730.36
2023-02-21T19:49:18.075Z,99731.61
2023-02-21T19:51:54.246Z,99739.01
2023-02-21T19:54:25.292Z,99735.91
2023-02-21T19:56:55.212Z,99741.41
2023-02-21T19:59:26.385Z,99743.11
2023-02-21T20:01:55.883Z,99739.22
2023-02-21T20:04:26.030Z,99744.14
2023-02-21T20:06:58.172Z,99747.38
2023-02-21T20:09:27.435Z,99748.17
2023-02-21T20:11:56.438Z,99754.92
2023-02-21T20:20:51.866Z,99757.63
2023-02-21T20:23:19.193Z,99766.37
2023-02-21T20:25:46.337Z,99775.14
2023-02-21T20:28:13.603Z,99788.71
2023-02-21T20:30:40.976Z,99801.59
2023-02-21T20:33:08.021Z,99813.48
2023-02-21T20:35:35.259Z,99820.63
2023-02-21T20:38:05.849Z,99818.18
2023-02-21T20:40:33.579Z,99807.19
2023-02-21T20:43:00.955Z,99806.67
2023-02-21T20:45:28.797Z,99809.98
2023-02-21T20:47:56.376Z,99811.52
2023-02-21T20:50:25.537Z,99807.61
2023-02-21T20:52:52.731Z,99804.33
2023-02-21T20:55:22.600Z,99803.88
2023-02-21T20:57:50.105Z,99808.58
2023-02-21T21:00:18.856Z,99813.39
2023-02-21T21:02:45.874Z,99816.24
2023-02-21T21:05:17.004Z,99814.35
2023-02-21T21:07:45.648Z,99818.11
2023-02-21T21:10:15.892Z,99826.35
2023-02-21T21:12:43.974Z,99828.64
2023-02-21T21:15:13.286Z,99828.10
2023-02-21T21:17:40.343Z,99827.41
2023-02-21T21:20:10.623Z,99829.38
2023-02-21T21:22:37.714Z,99832.94
2023-02-21T21:25:07.961Z,99835.08
2023-02-21T21:27:40.957Z,99841.86
2023-02-21T21:30:09.506Z,99847.93
2023-02-21T21:32:36.585Z,99849.70
2023-02-21T21:35:07.182Z,99853.10
2023-02-21T21:37:36.108Z,99855.45
2023-02-21T21:40:16.692Z,99859.67
2023-02-21T21:42:47.917Z,99864.48
2023-02-21T21:45:23.199Z,99869.58
2023-02-21T21:47:54.425Z,99874.40
2023-02-21T21:50:22.681Z,99878.86
2023-02-21T21:52:54.128Z,99883.27
2023-02-21T21:55:25.728Z,99888.29
2023-02-21T21:57:53.792Z,99894.82
2023-02-21T22:00:25.199Z,99897.05
2023-02-21T22:02:58.058Z,99898.00
2023-02-21T22:05:35.612Z,99903.66
2023-02-21T22:08:03.981Z,99902.35
2023-02-21T22:10:31.030Z,99903.81
2023-02-21T22:13:00.079Z,99911.23
2023-02-21T22:15:29.656Z,99913.55
2023-02-21T22:18:02.051Z,99920.54
2023-02-21T22:20:31.443Z,99921.51
2023-02-21T22:22:59.428Z,99924.67
2023-02-21T22:25:30.234Z,99931.55
2023-02-21T22:27:58.343Z,99932.33
2023-02-21T22:30:25.877Z,99933.76
2023-02-21T22:32:52.937Z,99936.16
2023-02-21T22:35:20.708Z,99937.06
2023-02-21T22:37:53.172Z,99939.52
2023-02-21T22:40:24.635Z,99940.53
2023-02-21T22:42:53.327Z,99941.96
2023-02-21T22:45:26.300Z,99940.41
2023-02-21T22:47:55.943Z,99943.52
2023-02-21T22:50:24.445Z,99941.95
2023-02-21T22:52:57.055Z,99944.23
2023-02-21T22:55:26.283Z,99944.77
2023-02-21T22:57:55.721Z,99945.91
2023-02-21T23:00:33.128Z,99948.23
2023-02-21T23:03:14.761Z,99953.33
2023-02-21T23:05:49.788Z,99953.70
2023-02-21T23:08:19.511Z,99949.73
2023-02-21T23:10:47.811Z,99951.96
2023-02-21T23:13:23.713Z,99951.25
2023-02-21T23:15:54.094Z,99958.96
2023-02-21T23:18:23.370Z,99957.80
2023-02-21T23:20:53.799Z,99973.27
2023-02-21T23:23:26.092Z,99975.73
2023-02-21T23:25:56.557Z,99982.60
2023-02-21T23:28:23.568Z,99989.46
2023-02-21T23:30:50.713Z,99995.13
2023-02-21T23:33:23.187Z,99999.02
2023-02-21T23:35:51.917Z,99999.84
2023-02-21T23:38:22.548Z,100006.48
2023-02-21T23:40:58.792Z,100011.09
2023-02-21T23:43:30.985Z,100014.70
2023-02-21T23:45:59.386Z,100011.17
2023-02-21T23:48:26.713Z,100015.27
2023-02-21T23:50:58.169Z,100019.34
2023-02-21T23:53:29.422Z,100020.39
2023-02-21T23:56:00.930Z,100022.37
2023-02-21T23:58:32.417Z,100026.41
